Aérodrome :
LOGIN :

S'inscrire | Disclaimer

   EN    FR    IT 

 










Légende :    VFR   VFR Marginal   IFR   IFR Intensif   IFR Très Intensif
Visi : 
Plafond : 
>= 8 km
>= 3000ft
5 à 8 km
1000 à 3000 ft
1500m à 5 km
500 à 1000 ft
800 à 1500m
200 à 500 ft
< 800m
< 200 ft
Symboles :   Orages  Brouillard  Fortes neiges  Fortes précipitations  Vent > 20 kt
SIGMETs :   Divers  Orages  Givrage  Turbulence  Onde Orograph.  Cendres Volcan.






- Altitude de l'aérodrome : 383 ft
- Code IATA : UDJ


UKLU - Uzhhorod

DERNIER METAR :
  • 271130Z 32006MPS 270V010 9999 BKN030 08/M04 Q1004 R10/190065 NOSIG

METARs EXPIRÉS :
  • 271100Z 32005MPS 290V020 9999 BKN030 08/M04 Q1004 R10/190065 NOSIG
  • 271030Z 32006MPS 280V360 9999 NSC 07/M05 Q1004 R10/190065 NOSIG
  • 271000Z 31006MPS 280V350 9999 NSC 07/M05 Q1004 R10/190065 NOSIG
  • 270930Z 32006MPS 280V360 9999 NSC 07/M04 Q1004 R10/190065 NOSIG
  • 270900Z 32004MPS 290V360 9999 NSC 07/M04 Q1003 R10/190065 NOSIG

TAF TAF UKLU
Valide du 27 à 12h jusqu'au 27 à 21h UTC


271102Z 2712/2721 31005MPS 9999 NSC TX07/2714Z TN02/2721Z
TEMPO 2712/2718 34008G13MPS 2100 -SHRA BKN010 SCT020CB



MET'MAP, la Météo Aéronautique d'un coup d'oeil ! - Copyright ORBIFLY Décembre 2007 - Disclaimer

ORBIFLY MET'MAP TEAM :

Programmation & Développement : Alexandra Zaïnal
Sur une idée originale de : Baudouin d'Aumeries
Assistance à la programmation : Marc-Olivier Méhu
Soutien technique & logistique : Manuel Goepfert

Contact : metmap@orbifly.com




SOURCES & CREDITS :

   NOAA